createdAt,value
2019-03-30T00:00:29.784Z,17.92
2019-03-30T00:03:02.183Z,13.78
2019-03-30T00:05:33.178Z,13.00
2019-03-30T00:08:05.098Z,15.58
2019-03-30T00:10:36.010Z,13.62
2019-03-30T00:13:06.856Z,12.78
2019-03-30T00:15:37.820Z,12.75
2019-03-30T00:18:08.694Z,15.95
2019-03-30T00:20:39.581Z,16.97
2019-03-30T00:23:10.412Z,14.85
2019-03-30T00:25:41.396Z,16.48
2019-03-30T00:28:13.262Z,16.20
2019-03-30T00:30:44.150Z,16.45
2019-03-30T00:33:15.645Z,16.32
2019-03-30T00:35:47.429Z,17.65
2019-03-30T00:38:18.346Z,16.17
2019-03-30T00:40:49.198Z,16.30
2019-03-30T00:43:20.074Z,16.93
2019-03-30T00:45:50.969Z,15.65
2019-03-30T00:48:21.873Z,19.00
2019-03-30T00:50:52.860Z,19.85
2019-03-30T00:53:23.721Z,16.17
2019-03-30T00:55:54.599Z,14.35
2019-03-30T00:58:25.764Z,16.15
2019-03-30T01:00:56.795Z,15.80
2019-03-30T01:03:29.843Z,18.35
2019-03-30T01:06:00.790Z,15.10
2019-03-30T01:08:31.705Z,14.35
2019-03-30T01:11:02.675Z,16.00
2019-03-30T01:13:33.640Z,16.12
2019-03-30T01:16:04.693Z,19.45
2019-03-30T01:18:35.677Z,14.90
2019-03-30T01:21:06.596Z,16.05
2019-03-30T01:23:37.485Z,14.83
2019-03-30T01:26:08.434Z,14.15
2019-03-30T01:28:39.422Z,13.68
2019-03-30T01:31:10.611Z,18.20
2019-03-30T01:33:42.680Z,20.00
2019-03-30T01:36:15.462Z,12.55
2019-03-30T01:38:46.353Z,20.12
2019-03-30T01:41:17.208Z,19.50
2019-03-30T01:43:48.002Z,14.58
2019-03-30T01:46:18.911Z,14.70
2019-03-30T01:48:49.775Z,13.58
2019-03-30T01:51:20.843Z,11.38
2019-03-30T01:53:51.742Z,15.60
2019-03-30T01:56:22.647Z,11.80
2019-03-30T01:58:53.571Z,10.63
2019-03-30T02:01:24.488Z,15.70
2019-03-30T02:03:56.755Z,14.73
2019-03-30T02:06:27.711Z,16.00
2019-03-30T02:08:59.625Z,11.18
2019-03-30T02:11:30.585Z,13.23
2019-03-30T02:14:01.400Z,15.72
2019-03-30T02:16:32.642Z,14.10
2019-03-30T02:19:03.509Z,14.25
2019-03-30T02:21:34.420Z,17.27
2019-03-30T02:24:05.315Z,15.20
2019-03-30T02:26:36.175Z,14.73
2019-03-30T02:29:07.088Z,13.68
2019-03-30T02:31:37.983Z,15.68
2019-03-30T02:34:09.317Z,12.20
2019-03-30T02:36:40.213Z,11.53
2019-03-30T02:39:11.048Z,14.83
2019-03-30T02:41:41.948Z,14.70
2019-03-30T02:44:12.846Z,14.95
2019-03-30T02:46:43.726Z,12.05
2019-03-30T02:49:14.523Z,15.38
2019-03-30T02:51:45.434Z,12.30
2019-03-30T02:54:16.418Z,15.48
2019-03-30T02:56:47.262Z,14.07
2019-03-30T02:59:18.064Z,10.25
2019-03-30T03:01:48.943Z,15.53
2019-03-30T03:04:19.873Z,14.70
2019-03-30T03:06:50.717Z,11.50
2019-03-30T03:09:21.601Z,14.73
2019-03-30T03:11:52.479Z,11.40
2019-03-30T03:14:23.405Z,12.28
2019-03-30T03:16:54.234Z,12.25
2019-03-30T03:19:25.119Z,10.53
2019-03-30T03:21:56.021Z,11.87
2019-03-30T03:24:26.923Z,13.53
2019-03-30T03:26:57.832Z,12.50
2019-03-30T03:29:28.732Z,12.58
2019-03-30T03:31:59.686Z,13.00
2019-03-30T03:34:31.906Z,17.03
2019-03-30T03:37:03.079Z,12.68
2019-03-30T03:39:33.957Z,14.30
2019-03-30T03:42:04.866Z,11.70
2019-03-30T03:44:35.729Z,13.87
2019-03-30T03:47:06.656Z,11.75
2019-03-30T03:49:37.565Z,11.60
2019-03-30T03:52:08.757Z,14.10
2019-03-30T03:54:39.674Z,12.28
2019-03-30T03:57:13.468Z,13.30
2019-03-30T03:59:44.650Z,12.50
2019-03-30T04:02:17.841Z,13.78
2019-03-30T04:04:50.430Z,12.53
2019-03-30T04:07:23.710Z,13.43
2019-03-30T04:09:57.610Z,10.37
2019-03-30T04:12:29.384Z,12.80
2019-03-30T04:15:03.561Z,13.33
2019-03-30T04:17:35.629Z,14.25
2019-03-30T04:20:07.063Z,12.73
2019-03-30T04:22:37.930Z,15.40
2019-03-30T04:25:08.893Z,12.40
2019-03-30T04:27:39.813Z,9.30
2019-03-30T04:30:10.664Z,9.33
2019-03-30T04:32:41.630Z,13.10
2019-03-30T04:35:12.594Z,12.53
2019-03-30T04:37:43.425Z,13.83
2019-03-30T04:40:14.297Z,14.78
2019-03-30T04:42:45.244Z,16.30
2019-03-30T04:45:16.033Z,12.93
2019-03-30T04:47:48.022Z,12.15
2019-03-30T04:50:18.929Z,12.00
2019-03-30T04:52:50.327Z,13.30
2019-03-30T04:55:21.243Z,12.47
2019-03-30T04:57:52.182Z,13.87
2019-03-30T05:00:23.013Z,12.63
2019-03-30T05:02:54.019Z,12.53
2019-03-30T05:05:25.369Z,12.67
2019-03-30T05:07:56.301Z,12.90
2019-03-30T05:10:27.191Z,13.70
2019-03-30T05:12:58.053Z,12.77
2019-03-30T05:15:28.990Z,12.78
2019-03-30T05:17:59.901Z,13.30
2019-03-30T05:20:30.833Z,15.13
2019-03-30T05:23:01.733Z,12.73
2019-03-30T05:25:32.609Z,13.00
2019-03-30T05:28:03.853Z,14.60
2019-03-30T05:30:34.671Z,12.83
2019-03-30T05:33:06.409Z,14.07
2019-03-30T05:35:37.505Z,12.30
2019-03-30T05:38:08.375Z,12.43
2019-03-30T05:40:39.287Z,13.13
2019-03-30T05:43:10.163Z,11.80
2019-03-30T05:45:41.085Z,12.77
2019-03-30T05:48:12.009Z,11.03
2019-03-30T05:50:42.958Z,10.07
2019-03-30T05:53:13.831Z,10.77
2019-03-30T05:55:44.725Z,12.00
2019-03-30T05:58:15.639Z,16.60
2019-03-30T06:00:46.574Z,12.85
2019-03-30T06:03:17.437Z,11.10
2019-03-30T06:05:48.660Z,12.33
2019-03-30T06:08:20.624Z,14.20
2019-03-30T06:10:51.501Z,13.57
2019-03-30T06:13:22.363Z,8.40
2019-03-30T06:15:53.255Z,12.80
2019-03-30T06:18:24.165Z,14.77
2019-03-30T06:20:55.038Z,13.30
2019-03-30T06:23:25.887Z,12.40
2019-03-30T06:25:56.855Z,9.40
2019-03-30T06:28:28.801Z,12.10
2019-03-30T06:31:00.115Z,12.10
2019-03-30T06:33:30.963Z,13.20
2019-03-30T06:36:02.525Z,9.03
2019-03-30T06:38:33.484Z,10.20
2019-03-30T06:41:04.441Z,13.93
2019-03-30T06:43:35.412Z,11.80
2019-03-30T06:46:06.311Z,12.30
2019-03-30T06:48:37.215Z,15.67
2019-03-30T06:51:08.061Z,14.70
2019-03-30T06:53:38.888Z,12.20
2019-03-30T06:56:09.764Z,13.20
2019-03-30T06:58:40.619Z,11.10
2019-03-30T07:01:11.533Z,11.23
2019-03-30T07:03:42.495Z,9.70
2019-03-30T07:06:15.218Z,9.50
2019-03-30T07:08:48.075Z,13.17
2019-03-30T07:11:21.410Z,8.10
2019-03-30T07:13:55.754Z,9.37
2019-03-30T07:16:29.127Z,10.10
2019-03-30T07:19:03.181Z,11.50
2019-03-30T07:21:34.120Z,10.60
2019-03-30T07:24:05.120Z,10.53
2019-03-30T07:26:36.077Z,9.67
2019-03-30T07:29:07.190Z,10.90
2019-03-30T07:31:38.107Z,13.90
2019-03-30T07:34:09.913Z,7.60
2019-03-30T07:36:41.081Z,8.07
2019-03-30T07:39:11.947Z,9.40
2019-03-30T07:41:42.863Z,11.27
2019-03-30T07:44:13.728Z,8.83
2019-03-30T07:46:44.633Z,9.87
2019-03-30T07:49:15.535Z,10.80
2019-03-30T07:51:46.399Z,11.97
2019-03-30T07:54:17.307Z,8.10
2019-03-30T07:56:48.181Z,11.27
2019-03-30T07:59:19.123Z,10.60
2019-03-30T08:01:50.455Z,11.80
2019-03-30T08:04:21.348Z,12.50
2019-03-30T08:06:53.409Z,10.80
2019-03-30T08:09:24.320Z,13.27
2019-03-30T08:11:55.218Z,13.97
2019-03-30T08:14:26.169Z,9.50
2019-03-30T08:16:57.034Z,11.33
2019-03-30T08:19:27.999Z,12.73
2019-03-30T08:21:58.997Z,11.83
2019-03-30T08:24:29.902Z,11.40
2019-03-30T08:27:00.794Z,11.47
2019-03-30T08:29:31.757Z,12.77
2019-03-30T08:32:02.615Z,13.17
2019-03-30T08:34:33.525Z,13.17
2019-03-30T08:37:05.746Z,13.50
2019-03-30T08:39:36.621Z,12.53
2019-03-30T08:42:07.892Z,14.23
2019-03-30T08:44:38.749Z,11.37
2019-03-30T08:47:09.681Z,14.47
2019-03-30T08:49:40.525Z,16.00
2019-03-30T08:52:11.396Z,17.80
2019-03-30T08:54:43.440Z,14.73
2019-03-30T08:57:14.353Z,15.03
2019-03-30T08:59:45.181Z,12.50
2019-03-30T09:02:16.056Z,13.53
2019-03-30T09:04:46.852Z,16.60
2019-03-30T09:07:19.266Z,18.60
2019-03-30T09:09:50.051Z,19.57
2019-03-30T09:12:20.965Z,18.47
2019-03-30T09:14:51.821Z,18.43
2019-03-30T09:17:22.769Z,15.07
2019-03-30T09:19:53.676Z,17.50
2019-03-30T09:22:24.498Z,16.73
2019-03-30T09:24:55.427Z,18.03
2019-03-30T09:27:27.555Z,17.77
2019-03-30T09:29:58.481Z,20.60
2019-03-30T09:32:29.410Z,18.23
2019-03-30T09:35:00.346Z,19.20
2019-03-30T09:37:32.312Z,21.40
2019-03-30T09:40:03.239Z,16.97
2019-03-30T09:42:34.199Z,14.20
2019-03-30T09:45:05.569Z,20.90
2019-03-30T09:47:36.482Z,19.17
2019-03-30T09:50:08.011Z,18.80
2019-03-30T09:52:38.898Z,19.17
2019-03-30T09:55:10.027Z,15.53
2019-03-30T09:57:41.021Z,13.27
2019-03-30T10:00:12.111Z,14.30
2019-03-30T10:02:42.986Z,18.50
2019-03-30T10:05:13.761Z,14.97
2019-03-30T10:07:46.956Z,13.33
2019-03-30T10:10:17.845Z,16.90
2019-03-30T10:12:48.734Z,16.20
2019-03-30T10:15:19.759Z,13.30
2019-03-30T10:17:50.660Z,17.40
2019-03-30T10:20:21.553Z,15.93
2019-03-30T10:22:52.534Z,12.07
2019-03-30T10:25:23.417Z,11.03
2019-03-30T10:27:54.336Z,13.93
2019-03-30T10:30:26.273Z,15.17
2019-03-30T10:32:57.221Z,11.17
2019-03-30T10:35:28.114Z,14.13
2019-03-30T10:37:59.736Z,14.30
2019-03-30T10:40:30.605Z,15.13
2019-03-30T10:43:01.528Z,18.53
2019-03-30T10:45:32.381Z,13.37
2019-03-30T10:48:03.298Z,12.43
2019-03-30T10:50:34.189Z,17.07
2019-03-30T10:53:05.118Z,15.53
2019-03-30T10:55:35.995Z,14.63
2019-03-30T10:58:06.926Z,13.93
2019-03-30T11:00:39.149Z,12.00
2019-03-30T11:03:10.165Z,14.67
2019-03-30T11:05:41.056Z,13.90
2019-03-30T11:08:13.501Z,13.87
2019-03-30T11:10:44.437Z,18.10
2019-03-30T11:13:15.409Z,13.10
2019-03-30T11:15:46.349Z,15.77
2019-03-30T11:18:17.232Z,13.33
2019-03-30T11:20:48.123Z,16.43
2019-03-30T11:23:18.989Z,13.50
2019-03-30T11:25:49.888Z,16.17
2019-03-30T11:28:20.778Z,12.63
2019-03-30T11:30:51.717Z,12.87
2019-03-30T11:33:26.933Z,14.10
2019-03-30T11:36:00.588Z,15.50
2019-03-30T11:38:31.536Z,14.90
2019-03-30T11:41:02.438Z,14.63
2019-03-30T11:43:33.370Z,13.90
2019-03-30T11:46:04.285Z,17.87
2019-03-30T11:48:37.689Z,15.80
2019-03-30T11:51:08.814Z,15.30
2019-03-30T11:53:39.694Z,17.00
2019-03-30T11:56:10.618Z,11.20
2019-03-30T11:58:41.476Z,15.13
2019-03-30T12:01:12.405Z,15.70
2019-03-30T12:03:43.271Z,13.43
2019-03-30T12:06:14.734Z,14.73
2019-03-30T12:08:45.692Z,14.23
2019-03-30T12:11:16.585Z,17.10
2019-03-30T12:13:47.483Z,15.63
2019-03-30T12:16:18.491Z,16.83
2019-03-30T12:18:50.438Z,14.77
2019-03-30T12:21:21.215Z,13.10
2019-03-30T12:23:52.077Z,14.93
2019-03-30T12:26:22.969Z,14.53
2019-03-30T12:28:54.020Z,13.70
2019-03-30T12:31:24.917Z,15.93
2019-03-30T12:33:55.905Z,13.27
2019-03-30T12:36:26.773Z,14.90
2019-03-30T12:38:57.717Z,13.57
2019-03-30T12:41:28.605Z,16.03
2019-03-30T12:43:59.519Z,12.50
2019-03-30T12:46:30.468Z,14.53
2019-03-30T12:49:01.340Z,13.80
2019-03-30T12:51:32.265Z,17.77
2019-03-30T12:54:03.143Z,15.37
2019-03-30T12:56:35.019Z,15.03
2019-03-30T12:59:05.933Z,16.80
2019-03-30T13:01:36.858Z,17.43
2019-03-30T13:04:07.843Z,12.87
2019-03-30T13:06:38.734Z,14.83
2019-03-30T13:09:09.715Z,13.57
2019-03-30T13:11:42.830Z,18.97
2019-03-30T13:14:13.721Z,15.13
2019-03-30T13:16:44.645Z,12.23
2019-03-30T13:19:15.565Z,18.97
2019-03-30T13:21:52.650Z,14.00
2019-03-30T13:24:20.208Z,18.70
2019-03-30T13:26:51.108Z,17.80
2019-03-30T13:29:22.163Z,15.13
2019-03-30T13:31:53.053Z,19.40
2019-03-30T13:34:24.004Z,13.27
2019-03-30T13:36:54.776Z,15.97
2019-03-30T13:39:25.706Z,12.73
2019-03-30T13:41:56.812Z,16.20
2019-03-30T13:44:27.693Z,17.70
2019-03-30T13:46:58.605Z,20.10
2019-03-30T13:49:29.919Z,17.50
2019-03-30T13:52:01.947Z,16.57
2019-03-30T13:54:32.869Z,18.90
2019-03-30T13:57:03.786Z,16.80
2019-03-30T13:59:35.050Z,26.00
2019-03-30T14:02:06.902Z,17.40
2019-03-30T14:04:37.820Z,16.00
2019-03-30T14:07:08.732Z,19.47
2019-03-30T14:09:39.749Z,15.27
2019-03-30T14:12:10.586Z,22.23
2019-03-30T14:14:41.500Z,21.10
2019-03-30T14:17:13.278Z,20.13
2019-03-30T14:19:44.145Z,19.87
2019-03-30T14:22:15.082Z,22.93
2019-03-30T14:24:45.926Z,20.63
2019-03-30T14:27:16.850Z,19.03
2019-03-30T14:29:47.708Z,19.77
2019-03-30T14:32:18.665Z,18.30
2019-03-30T14:34:49.640Z,26.00
2019-03-30T14:37:20.582Z,20.10
2019-03-30T14:40:03.652Z,22.30
2019-03-30T14:42:35.580Z,18.17
2019-03-30T14:45:07.504Z,19.20
2019-03-30T14:47:38.306Z,17.53
2019-03-30T14:50:09.916Z,20.80
2019-03-30T14:52:40.767Z,19.50
2019-03-30T14:55:11.724Z,22.90
2019-03-30T14:57:42.640Z,19.33
2019-03-30T15:00:14.140Z,14.97
2019-03-30T15:02:45.081Z,19.20
2019-03-30T15:05:16.032Z,18.87
2019-03-30T15:07:46.955Z,20.73
2019-03-30T15:10:18.133Z,21.57
2019-03-30T15:12:50.212Z,19.23
2019-03-30T15:15:21.214Z,23.07
2019-03-30T15:17:52.126Z,18.80
2019-03-30T15:20:22.975Z,23.33
2019-03-30T15:22:53.941Z,21.07
2019-03-30T15:25:24.890Z,19.90
2019-03-30T15:27:55.774Z,19.90
2019-03-30T15:30:26.742Z,22.03
2019-03-30T15:32:57.679Z,20.53
2019-03-30T15:35:28.796Z,21.63
2019-03-30T15:37:59.641Z,23.00
2019-03-30T15:40:30.571Z,24.20
2019-03-30T15:43:01.525Z,19.23
2019-03-30T15:45:32.488Z,20.90
2019-03-30T15:48:03.713Z,31.13
2019-03-30T16:02:03.774Z,23.43
2019-03-30T16:04:34.804Z,24.00
2019-03-30T16:07:06.963Z,22.60
2019-03-30T16:09:38.111Z,26.60
2019-03-30T16:12:09.021Z,24.60
2019-03-30T16:14:40.304Z,25.00
2019-03-30T16:17:14.670Z,23.17
2019-03-30T16:19:43.845Z,24.67
2019-03-30T16:22:14.830Z,23.80
2019-03-30T16:24:46.317Z,22.70
2019-03-30T16:27:28.251Z,25.17
2019-03-30T16:29:49.818Z,22.00
2019-03-30T16:32:21.723Z,24.20
2019-03-30T16:34:52.594Z,23.40
2019-03-30T16:37:23.586Z,25.30
2019-03-30T16:39:54.452Z,22.00
2019-03-30T16:42:26.723Z,33.03
2019-03-30T16:44:57.560Z,22.73
2019-03-30T16:47:28.616Z,20.40
2019-03-30T16:49:59.796Z,19.07
2019-03-30T16:52:30.737Z,25.87
2019-03-30T16:55:02.033Z,22.70
2019-03-30T16:57:43.103Z,28.77
2019-03-30T17:00:11.413Z,22.57
2019-03-30T17:02:42.477Z,26.20
2019-03-30T17:05:16.266Z,22.40
2019-03-30T17:07:58.113Z,25.80
2019-03-30T17:10:28.981Z,21.17
2019-03-30T17:13:05.789Z,28.27
2019-03-30T17:15:41.986Z,28.07
2019-03-30T17:18:13.306Z,21.07
2019-03-30T17:20:44.234Z,24.00
2019-03-30T17:23:15.148Z,29.30
2019-03-30T17:25:46.107Z,30.87
2019-03-30T17:28:16.990Z,29.23
2019-03-30T17:30:47.973Z,22.60
2019-03-30T17:33:18.950Z,23.73
2019-03-30T17:35:49.887Z,27.77
2019-03-30T17:38:20.870Z,31.87
2019-03-30T17:40:51.887Z,25.77
2019-03-30T17:43:24.172Z,26.10
2019-03-30T17:45:55.193Z,29.40
2019-03-30T17:48:26.502Z,21.13
2019-03-30T17:50:58.626Z,22.80
2019-03-30T17:53:29.751Z,26.63
2019-03-30T17:56:02.248Z,30.80
2019-03-30T17:58:33.387Z,27.73
2019-03-30T18:01:04.430Z,26.17
2019-03-30T18:03:35.610Z,26.70
2019-03-30T18:06:06.689Z,30.20
2019-03-30T18:08:37.565Z,23.30
2019-03-30T18:11:08.784Z,22.17
2019-03-30T18:13:41.476Z,19.93
2019-03-30T18:16:12.903Z,23.17
2019-03-30T18:18:45.052Z,25.67
2019-03-30T18:21:16.118Z,25.10
2019-03-30T18:23:47.561Z,25.47
2019-03-30T18:26:19.766Z,26.77
2019-03-30T18:28:50.602Z,26.50
2019-03-30T18:31:23.829Z,28.10
2019-03-30T18:33:55.204Z,26.23
2019-03-30T18:36:28.884Z,27.43
2019-03-30T18:39:09.280Z,26.63
2019-03-30T18:41:34.244Z,26.60
2019-03-30T18:44:06.568Z,32.57
2019-03-30T18:46:37.602Z,30.27
2019-03-30T18:49:09.502Z,29.37
2019-03-30T18:51:42.842Z,30.70
2019-03-30T18:54:14.928Z,26.13
2019-03-30T18:56:46.904Z,26.83
2019-03-30T18:59:18.770Z,29.13
2019-03-30T19:01:49.654Z,28.57
2019-03-30T19:04:20.565Z,25.80
2019-03-30T19:06:51.440Z,29.63
2019-03-30T19:09:22.350Z,29.80
2019-03-30T19:11:53.256Z,25.80
2019-03-30T19:14:25.800Z,30.63
2019-03-30T19:16:56.762Z,26.20
2019-03-30T19:19:27.712Z,31.20
2019-03-30T19:21:58.631Z,34.77
2019-03-30T19:24:29.505Z,33.07
2019-03-30T19:27:00.432Z,32.30
2019-03-30T19:29:31.456Z,36.67
2019-03-30T19:32:05.455Z,37.37
2019-03-30T19:34:38.020Z,30.03
2019-03-30T19:37:08.947Z,32.97
2019-03-30T19:39:39.833Z,34.50
2019-03-30T19:42:10.797Z,32.67
2019-03-30T19:44:42.183Z,30.37
2019-03-30T19:47:13.128Z,36.23
2019-03-30T19:49:44.061Z,34.17
2019-03-30T19:52:14.950Z,28.73
2019-03-30T19:54:45.857Z,31.97
2019-03-30T19:57:16.772Z,29.00
2019-03-30T19:59:47.661Z,30.20
2019-03-30T20:02:18.574Z,31.93
2019-03-30T20:04:49.499Z,30.47
2019-03-30T20:07:20.548Z,29.50
2019-03-30T20:09:51.564Z,31.10
2019-03-30T20:12:22.591Z,34.73
2019-03-30T20:14:53.456Z,39.53
2019-03-30T20:17:24.378Z,37.43
2019-03-30T20:19:55.242Z,44.67
2019-03-30T20:22:26.158Z,37.67
2019-03-30T20:24:57.064Z,45.27
2019-03-30T20:27:28.019Z,37.30
2019-03-30T20:29:58.894Z,43.20
2019-03-30T20:32:29.942Z,49.43
2019-03-30T20:35:00.848Z,40.27
2019-03-30T20:37:31.841Z,44.50
2019-03-30T20:40:02.706Z,48.07
2019-03-30T20:42:34.644Z,43.23
2019-03-30T20:45:07.415Z,38.90
2019-03-30T20:47:38.462Z,39.13
2019-03-30T20:50:10.958Z,34.13
2019-03-30T20:52:41.823Z,34.93
2019-03-30T20:55:12.857Z,31.57
2019-03-30T20:57:43.719Z,34.57
2019-03-30T21:00:15.472Z,36.80
2019-03-30T21:02:46.618Z,38.40
2019-03-30T21:05:17.463Z,39.37
2019-03-30T21:07:48.384Z,39.07
2019-03-30T21:10:19.298Z,39.00
2019-03-30T21:12:50.198Z,46.10
2019-03-30T21:15:22.271Z,30.10
2019-03-30T21:17:53.676Z,37.33
2019-03-30T21:20:24.580Z,41.60
2019-03-30T21:22:55.507Z,42.63
2019-03-30T21:25:27.618Z,44.00
2019-03-30T21:27:58.589Z,45.13
2019-03-30T21:30:29.512Z,42.80
2019-03-30T21:33:00.385Z,35.83
2019-03-30T21:35:31.972Z,43.90
2019-03-30T21:38:02.900Z,41.80
2019-03-30T21:40:33.814Z,44.50
2019-03-30T21:43:04.826Z,47.27
2019-03-30T21:45:36.156Z,43.47
2019-03-30T21:48:07.130Z,41.92
2019-03-30T21:50:38.126Z,40.07
2019-03-30T21:53:09.093Z,41.23
2019-03-30T21:55:40.110Z,34.00
2019-03-30T21:58:11.017Z,41.90
2019-03-30T22:00:41.925Z,43.95
2019-03-30T22:03:12.916Z,41.53
2019-03-30T22:05:44.144Z,47.58
2019-03-30T22:08:17.312Z,49.73
2019-03-30T22:10:48.539Z,49.98
2019-03-30T22:13:21.487Z,45.40
2019-03-30T22:15:52.355Z,43.70
2019-03-30T22:18:23.297Z,36.95
2019-03-30T22:20:54.117Z,38.35
2019-03-30T22:23:25.016Z,40.90
2019-03-30T22:25:55.845Z,43.68
2019-03-30T22:28:26.801Z,40.10
2019-03-30T22:30:57.764Z,41.70
2019-03-30T22:33:30.783Z,40.67
2019-03-30T22:36:01.179Z,40.00
2019-03-30T22:38:32.122Z,42.25
2019-03-30T22:41:03.025Z,41.40
2019-03-30T22:43:33.902Z,42.15
2019-03-30T22:46:07.564Z,47.53
2019-03-30T22:48:37.331Z,41.37
2019-03-30T22:51:08.320Z,42.27
2019-03-30T22:53:39.217Z,44.40
2019-03-30T22:56:10.151Z,41.33
2019-03-30T22:58:41.012Z,44.27
2019-03-30T23:01:14.463Z,40.80
2019-03-30T23:03:46.999Z,43.23
2019-03-30T23:06:18.372Z,40.87
2019-03-30T23:08:50.380Z,40.15
2019-03-30T23:11:21.247Z,48.17
2019-03-30T23:13:52.140Z,43.42
2019-03-30T23:16:23.549Z,38.95
2019-03-30T23:18:54.469Z,44.40
2019-03-30T23:21:25.439Z,38.43
2019-03-30T23:23:56.271Z,42.83
2019-03-30T23:26:27.200Z,41.30
2019-03-30T23:28:59.637Z,42.78
2019-03-30T23:31:30.598Z,41.30
2019-03-30T23:34:02.540Z,42.33
2019-03-30T23:36:33.511Z,40.17
2019-03-30T23:39:06.727Z,41.98
2019-03-30T23:41:37.609Z,37.15
2019-03-30T23:44:08.504Z,50.83
2019-03-30T23:46:39.348Z,45.73
2019-03-30T23:49:10.240Z,42.53
2019-03-30T23:51:41.161Z,44.55
2019-03-30T23:54:15.805Z,41.53
2019-03-30T23:56:46.774Z,40.10
2019-03-30T23:59:17.845Z,46.13
